Wagon Mound, New Mexico
Current Conditions -  °F | °C
As of 12:53 PM on Monday 24 Nov 2014 (Local Time) from KLVS Reporting Station
Clear Clear  
Wind Chill: 29°   Ceiling: Unl
Heat Index: 39°   Visibility: 10mi
Dew Point:   Wind: 21mph
Humidity: 24%   Direction: 310°NW
Pressure: 29.98"   Gusts: 32mph
Location:  36.01°N, 104.71°W
Report Text: KLVS 241953Z AUTO 31018G28KT 10SM CLR 04/M15 A2998 RMK AO2 PK WND 34029/1940 WSHFT 1931 SLP148 T00391150
Loading
Personal Weather Stations






























Interactive Weather Map New forecast layout! Learn more

10-Day Weather Forecast

Advertisements
Track Severe Weather on mobile